createdAt,value
2023-05-22T00:01:47.985Z,72.69
2023-05-22T00:04:22.588Z,72.40
2023-05-22T00:06:51.157Z,72.34
2023-05-22T00:09:19.244Z,72.31
2023-05-22T00:11:47.432Z,72.41
2023-05-22T00:14:15.502Z,72.34
2023-05-22T00:16:43.994Z,72.36
2023-05-22T00:19:14.485Z,72.38
2023-05-22T00:21:42.527Z,72.55
2023-05-22T00:24:10.898Z,72.69
2023-05-22T00:26:38.814Z,72.52
2023-05-22T00:29:10.718Z,72.49
2023-05-22T00:31:38.746Z,72.48
2023-05-22T00:34:06.901Z,72.40
2023-05-22T00:36:34.974Z,72.49
2023-05-22T00:39:02.966Z,72.83
2023-05-22T00:41:31.607Z,73.07
2023-05-22T00:43:59.565Z,73.22
2023-05-22T00:46:27.721Z,73.37
2023-05-22T00:48:55.850Z,73.56
2023-05-22T00:51:23.991Z,73.84
2023-05-22T00:53:53.277Z,74.09
2023-05-22T00:56:22.696Z,74.48
2023-05-22T00:58:51.153Z,74.99
2023-05-22T01:01:19.151Z,76.36
2023-05-22T01:03:48.128Z,75.87
2023-05-22T01:06:19.264Z,76.15
2023-05-22T01:08:47.303Z,76.27
2023-05-22T01:11:20.930Z,76.22
2023-05-22T01:14:03.842Z,76.53
2023-05-22T01:16:40.842Z,76.99
2023-05-22T01:19:27.567Z,76.82
2023-05-22T01:22:37.182Z,76.78
2023-05-22T01:25:18.358Z,77.29
2023-05-22T01:28:10.524Z,77.41
2023-05-22T01:30:38.623Z,77.42
2023-05-22T01:33:09.617Z,77.17
2023-05-22T01:35:40.617Z,77.48
2023-05-22T01:38:10.370Z,77.52
2023-05-22T01:40:39.291Z,77.53
2023-05-22T01:43:07.939Z,78.44
2023-05-22T01:45:36.338Z,77.92
2023-05-22T01:48:04.364Z,78.16
2023-05-22T01:50:32.612Z,78.29
2023-05-22T01:53:21.132Z,78.51
2023-05-22T01:56:22.399Z,79.48
2023-05-22T01:59:13.239Z,79.83
2023-05-22T02:01:42.836Z,79.51
2023-05-22T02:04:12.089Z,79.21
2023-05-22T02:06:40.958Z,79.20
2023-05-22T02:09:10.161Z,79.32
2023-05-22T02:11:39.728Z,79.22
2023-05-22T02:14:07.941Z,79.29
2023-05-22T02:16:36.388Z,79.27
2023-05-22T02:19:07.668Z,79.45
2023-05-22T02:21:37.222Z,79.42
2023-05-22T02:24:05.354Z,79.49
2023-05-22T02:26:33.300Z,79.70
2023-05-22T02:29:01.200Z,79.99
2023-05-22T02:31:29.104Z,79.82
2023-05-22T02:33:57.833Z,79.86
2023-05-22T02:36:27.484Z,79.90
2023-05-22T02:38:56.753Z,79.97
2023-05-22T02:41:24.782Z,80.33
2023-05-22T02:43:52.701Z,80.21
2023-05-22T02:46:20.648Z,80.15
2023-05-22T02:48:48.695Z,80.13
2023-05-22T02:51:16.796Z,80.13
2023-05-22T02:53:44.791Z,80.14
2023-05-22T02:56:13.390Z,80.15
2023-05-22T02:58:41.478Z,80.32
2023-05-22T03:01:10.334Z,80.49
2023-05-22T03:03:38.298Z,80.91
2023-05-22T03:06:06.597Z,80.81
2023-05-22T03:08:34.592Z,81.02
2023-05-22T03:11:03.149Z,81.10
2023-05-22T03:13:31.117Z,81.11
2023-05-22T03:15:59.140Z,81.19
2023-05-22T03:18:27.884Z,81.25
2023-05-22T03:20:55.915Z,81.46
2023-05-22T03:23:23.903Z,81.57
2023-05-22T03:25:52.532Z,81.75
2023-05-22T03:28:20.427Z,81.84
2023-05-22T03:30:48.883Z,82.00
2023-05-22T03:33:16.985Z,82.07
2023-05-22T03:35:45.895Z,82.24
2023-05-22T03:38:13.868Z,82.38
2023-05-22T03:40:42.040Z,82.59
2023-05-22T03:43:10.157Z,82.66
2023-05-22T03:45:38.087Z,82.80
2023-05-22T03:48:06.136Z,83.01
2023-05-22T03:50:34.049Z,83.20
2023-05-22T03:53:02.554Z,83.41
2023-05-22T03:55:32.167Z,83.60
2023-05-22T03:58:00.063Z,83.77
2023-05-22T04:00:28.000Z,83.91
2023-05-22T04:02:56.162Z,84.06
2023-05-22T04:05:24.263Z,84.20
2023-05-22T04:07:52.292Z,84.31
2023-05-22T04:10:23.814Z,84.48
2023-05-22T04:12:52.082Z,84.68
2023-05-22T04:15:19.996Z,84.89
2023-05-22T04:17:48.652Z,84.98
2023-05-22T04:20:16.986Z,85.15
2023-05-22T04:22:47.081Z,85.30
2023-05-22T04:25:15.199Z,85.40
2023-05-22T04:27:43.743Z,85.52
2023-05-22T04:30:11.845Z,85.66
2023-05-22T04:32:39.837Z,85.79
2023-05-22T04:35:08.121Z,85.91
2023-05-22T04:37:37.152Z,86.04
2023-05-22T04:40:08.741Z,86.16
2023-05-22T04:42:36.729Z,86.21
2023-05-22T04:45:05.705Z,86.33
2023-05-22T04:47:33.712Z,86.47
2023-05-22T04:50:02.360Z,86.49
2023-05-22T04:52:30.279Z,86.71
2023-05-22T04:55:00.689Z,86.79
2023-05-22T04:57:29.139Z,86.84
2023-05-22T04:59:58.350Z,86.94
2023-05-22T05:02:26.410Z,87.10
2023-05-22T05:04:54.484Z,87.08
2023-05-22T05:07:22.873Z,87.07
2023-05-22T05:09:50.944Z,87.07
2023-05-22T05:12:18.891Z,87.10
2023-05-22T05:14:46.841Z,87.14
2023-05-22T05:17:15.153Z,87.17
2023-05-22T05:19:43.087Z,87.20
2023-05-22T05:22:11.039Z,87.20
2023-05-22T05:24:39.028Z,87.19
2023-05-22T05:27:07.355Z,87.14
2023-05-22T05:29:35.237Z,87.05
2023-05-22T05:32:03.272Z,86.99
2023-05-22T05:34:31.202Z,86.97
2023-05-22T05:36:59.294Z,87.27
2023-05-22T05:39:27.281Z,87.77
2023-05-22T05:41:55.373Z,87.33
2023-05-22T05:44:23.268Z,87.21
2023-05-22T05:46:51.332Z,87.02
2023-05-22T05:49:20.870Z,86.79
2023-05-22T05:51:48.800Z,86.54
2023-05-22T05:54:17.347Z,86.20
2023-05-22T05:56:45.329Z,85.94
2023-05-22T05:59:13.303Z,85.75
2023-05-22T06:01:45.808Z,85.46
2023-05-22T06:04:14.692Z,85.40
2023-05-22T06:06:43.824Z,85.27
2023-05-22T06:09:12.230Z,85.14
2023-05-22T06:11:40.194Z,84.98
2023-05-22T06:14:09.748Z,84.77
2023-05-22T06:16:37.764Z,84.66
2023-05-22T06:19:06.041Z,84.49
2023-05-22T06:21:33.993Z,84.39
2023-05-22T06:24:02.022Z,84.20
2023-05-22T06:26:30.173Z,84.28
2023-05-22T06:28:58.144Z,84.04
2023-05-22T06:31:26.504Z,83.75
2023-05-22T06:33:54.519Z,83.46
2023-05-22T06:36:22.538Z,83.66
2023-05-22T06:38:50.974Z,83.15
2023-05-22T06:41:18.947Z,82.65
2023-05-22T06:43:46.971Z,81.88
2023-05-22T06:46:14.909Z,80.53
2023-05-22T06:48:43.322Z,79.72
2023-05-22T06:51:12.993Z,78.79
2023-05-22T06:53:40.950Z,78.40
2023-05-22T06:56:09.168Z,78.21
2023-05-22T06:58:37.375Z,77.85
2023-05-22T07:01:05.642Z,77.70
2023-05-22T07:03:33.651Z,77.69
2023-05-22T07:06:01.703Z,77.75
2023-05-22T07:08:30.745Z,77.62
2023-05-22T07:10:58.906Z,77.55
2023-05-22T07:13:27.192Z,77.65
2023-05-22T07:15:55.106Z,77.53
2023-05-22T07:18:23.057Z,77.55
2023-05-22T07:20:50.943Z,77.47
2023-05-22T07:23:18.844Z,77.32
2023-05-22T07:25:46.864Z,77.31
2023-05-22T07:28:14.816Z,77.35
2023-05-22T07:30:42.844Z,77.45
2023-05-22T07:33:10.840Z,77.55
2023-05-22T07:35:38.993Z,77.40
2023-05-22T07:38:07.113Z,77.02
2023-05-22T07:40:35.055Z,76.99
2023-05-22T07:43:03.000Z,76.75
2023-05-22T07:45:32.078Z,76.71
2023-05-22T07:48:00.425Z,76.45
2023-05-22T07:50:28.436Z,76.14
2023-05-22T07:52:56.416Z,75.50
2023-05-22T07:55:24.367Z,74.87
2023-05-22T07:57:52.670Z,74.06
2023-05-22T08:00:21.246Z,73.87
2023-05-22T08:02:49.258Z,73.34
2023-05-22T08:05:17.511Z,73.10
2023-05-22T08:07:45.659Z,72.92
2023-05-22T08:10:18.174Z,72.16
2023-05-22T08:12:46.316Z,71.79
2023-05-22T08:15:14.528Z,71.80
2023-05-22T08:17:42.522Z,71.27
2023-05-22T08:20:11.632Z,71.12
2023-05-22T08:22:40.852Z,71.20
2023-05-22T08:25:09.227Z,71.62
2023-05-22T08:27:37.178Z,71.74
2023-05-22T08:30:06.020Z,71.76
2023-05-22T08:32:34.053Z,71.60
2023-05-22T08:35:02.764Z,71.39
2023-05-22T08:37:30.801Z,70.96
2023-05-22T08:39:58.699Z,70.68
2023-05-22T08:42:26.652Z,70.46
2023-05-22T08:44:56.778Z,70.20
2023-05-22T08:47:28.127Z,70.09
2023-05-22T08:49:59.409Z,69.85
2023-05-22T08:52:34.692Z,69.49
2023-05-22T08:55:06.902Z,69.05
2023-05-22T08:57:36.142Z,69.01
2023-05-22T09:00:05.084Z,68.63
2023-05-22T09:02:33.588Z,68.17
2023-05-22T09:05:03.369Z,67.87
2023-05-22T09:07:31.324Z,67.64
2023-05-22T09:09:59.298Z,67.56
2023-05-22T09:12:28.462Z,67.42
2023-05-22T09:14:57.318Z,67.36
2023-05-22T09:17:25.403Z,67.31
2023-05-22T09:19:53.456Z,67.24
2023-05-22T09:22:23.595Z,67.11
2023-05-22T09:24:52.343Z,66.89
2023-05-22T09:27:24.610Z,66.67
2023-05-22T09:29:54.236Z,66.06
2023-05-22T09:32:22.376Z,66.27
2023-05-22T09:34:51.146Z,66.10
2023-05-22T09:37:19.573Z,65.92
2023-05-22T09:39:54.191Z,65.77
2023-05-22T09:42:22.065Z,65.69
2023-05-22T09:44:51.152Z,65.64
2023-05-22T09:47:19.172Z,65.36
2023-05-22T09:49:47.772Z,65.23
2023-05-22T09:52:18.064Z,65.31
2023-05-22T09:54:57.134Z,65.35
2023-05-22T09:57:27.979Z,64.74
2023-05-22T09:59:59.800Z,64.87
2023-05-22T10:02:29.464Z,64.58
2023-05-22T10:04:58.008Z,64.45
2023-05-22T10:07:33.708Z,64.51
2023-05-22T10:10:06.552Z,64.53
2023-05-22T10:12:39.148Z,63.90
2023-05-22T10:15:08.795Z,63.83
2023-05-22T10:17:38.155Z,63.72
2023-05-22T10:20:09.272Z,63.48
2023-05-22T10:22:39.095Z,63.50
2023-05-22T10:25:09.847Z,63.61
2023-05-22T10:27:39.624Z,63.35
2023-05-22T10:30:35.497Z,62.86
2023-05-22T10:33:14.236Z,61.87
2023-05-22T10:35:58.430Z,62.57
2023-05-22T10:38:54.379Z,62.41
2023-05-22T10:41:24.224Z,62.19
2023-05-22T10:43:52.654Z,62.36
2023-05-22T10:46:20.975Z,62.24
2023-05-22T10:48:50.200Z,62.05
2023-05-22T10:51:27.433Z,61.48
2023-05-22T10:54:06.621Z,60.44
2023-05-22T10:56:36.647Z,60.54
2023-05-22T10:59:07.201Z,61.12
2023-05-22T11:01:39.333Z,61.37
2023-05-22T11:04:10.213Z,61.08
2023-05-22T11:06:47.791Z,60.50
2023-05-22T11:09:49.978Z,59.46
2023-05-22T11:12:22.654Z,58.34
2023-05-22T11:14:52.804Z,58.82
2023-05-22T11:17:31.622Z,59.14
2023-05-22T11:20:07.427Z,59.44
2023-05-22T11:22:36.625Z,59.22
2023-05-22T11:25:09.966Z,59.20
2023-05-22T11:27:40.416Z,58.68
2023-05-22T11:30:09.686Z,58.51
2023-05-22T11:32:38.912Z,58.69
2023-05-22T11:35:09.670Z,58.85
2023-05-22T11:37:41.326Z,58.65
2023-05-22T11:40:10.480Z,58.31
2023-05-22T11:42:39.082Z,58.59
2023-05-22T11:45:08.079Z,58.61
2023-05-22T11:47:36.145Z,58.66
2023-05-22T11:50:04.581Z,58.07
2023-05-22T11:52:36.801Z,58.11
2023-05-22T11:55:09.175Z,57.12
2023-05-22T11:57:38.193Z,56.36
2023-05-22T12:00:09.404Z,56.33
2023-05-22T12:02:38.410Z,55.97
2023-05-22T12:05:06.865Z,55.77
2023-05-22T12:07:34.935Z,56.07
2023-05-22T12:10:05.046Z,55.97
2023-05-22T12:12:33.094Z,55.81
2023-05-22T12:15:01.082Z,55.55
2023-05-22T12:17:30.108Z,55.13
2023-05-22T12:19:59.142Z,54.87
2023-05-22T12:22:31.043Z,55.05
2023-05-22T12:24:58.997Z,55.59
2023-05-22T12:27:33.163Z,55.45
2023-05-22T12:30:10.618Z,54.45
2023-05-22T12:32:38.625Z,53.71
2023-05-22T12:35:06.983Z,54.03
2023-05-22T12:37:35.482Z,54.26
2023-05-22T12:40:06.110Z,54.13
2023-05-22T12:42:34.103Z,53.37
2023-05-22T12:45:02.125Z,52.87
2023-05-22T12:47:30.144Z,52.69
2023-05-22T12:49:58.145Z,52.92
2023-05-22T12:52:26.220Z,52.61
2023-05-22T12:54:54.119Z,51.32
2023-05-22T12:57:22.011Z,50.63
2023-05-22T12:59:49.977Z,49.66
2023-05-22T13:02:17.901Z,50.06
2023-05-22T13:04:45.820Z,49.29
2023-05-22T13:07:13.746Z,48.92
2023-05-22T13:09:41.757Z,48.51
2023-05-22T13:12:11.613Z,45.94
2023-05-22T13:14:41.597Z,47.20
2023-05-22T13:17:09.746Z,47.25
2023-05-22T13:19:37.712Z,45.64
2023-05-22T13:22:06.293Z,44.97
2023-05-22T13:24:34.280Z,45.14
2023-05-22T13:27:03.142Z,45.42
2023-05-22T13:29:31.050Z,44.50
2023-05-22T13:31:58.999Z,42.59
2023-05-22T13:34:27.008Z,42.33
2023-05-22T13:36:55.865Z,42.12
2023-05-22T13:39:24.172Z,42.23
2023-05-22T13:41:54.100Z,42.57
2023-05-22T13:44:22.625Z,41.21
2023-05-22T13:46:51.070Z,40.50
2023-05-22T13:49:19.119Z,40.25
2023-05-22T13:51:47.316Z,40.64
2023-05-22T13:54:15.328Z,40.45
2023-05-22T13:56:43.507Z,39.48
2023-05-22T13:59:12.023Z,40.45
2023-05-22T14:01:40.048Z,40.87
2023-05-22T14:04:08.168Z,40.94
2023-05-22T14:06:36.217Z,41.11
2023-05-22T14:09:04.927Z,40.50
2023-05-22T14:11:32.945Z,41.01
2023-05-22T14:14:01.061Z,41.92
2023-05-22T14:16:29.195Z,42.00
2023-05-22T14:18:57.474Z,41.98
2023-05-22T14:21:25.478Z,41.98
2023-05-22T14:23:53.799Z,41.60
2023-05-22T14:26:23.457Z,41.71
2023-05-22T14:28:52.054Z,41.67
2023-05-22T14:31:20.181Z,41.76
2023-05-22T14:33:48.178Z,42.07
2023-05-22T14:36:16.170Z,42.23
2023-05-22T14:38:44.152Z,41.97
2023-05-22T14:41:12.155Z,42.22
2023-05-22T14:43:40.171Z,42.50
2023-05-22T14:46:08.301Z,42.33
2023-05-22T14:48:36.358Z,42.46
2023-05-22T14:51:04.285Z,42.29
2023-05-22T14:53:32.249Z,41.63
2023-05-22T14:56:00.343Z,40.78
2023-05-22T14:58:28.268Z,40.60
2023-05-22T15:00:56.242Z,40.40
2023-05-22T15:03:24.958Z,40.06
2023-05-22T15:05:52.900Z,40.46
2023-05-22T15:08:21.414Z,39.30
2023-05-22T15:10:49.553Z,39.04
2023-05-22T15:13:17.528Z,38.41
2023-05-22T15:15:46.438Z,39.49
2023-05-22T15:18:14.712Z,39.86
2023-05-22T15:20:42.763Z,40.43
2023-05-22T15:23:10.632Z,39.58
2023-05-22T15:25:39.121Z,40.09
2023-05-22T15:28:08.846Z,40.43
2023-05-22T15:30:37.815Z,40.52
2023-05-22T15:33:06.290Z,40.74
2023-05-22T15:35:34.271Z,40.87
2023-05-22T15:38:02.437Z,40.91
2023-05-22T15:40:30.636Z,40.30
2023-05-22T15:42:58.607Z,40.91
2023-05-22T15:45:26.546Z,40.55
2023-05-22T15:47:54.703Z,40.77
2023-05-22T15:50:22.677Z,39.33
2023-05-22T15:52:50.625Z,40.29
2023-05-22T15:55:18.563Z,40.38
2023-05-22T15:57:46.567Z,40.54
2023-05-22T16:00:16.510Z,40.22
2023-05-22T16:02:45.856Z,40.24
2023-05-22T16:05:13.856Z,40.45
2023-05-22T16:07:41.782Z,40.45
2023-05-22T16:10:10.350Z,40.43
2023-05-22T16:12:42.880Z,40.50
2023-05-22T16:15:11.254Z,40.26
2023-05-22T16:17:39.668Z,40.50
2023-05-22T16:20:09.847Z,40.85
2023-05-22T16:22:48.288Z,40.33
2023-05-22T16:25:18.385Z,39.57
2023-05-22T16:27:46.919Z,39.93
2023-05-22T16:30:18.698Z,39.84
2023-05-22T16:32:48.110Z,39.74
2023-05-22T16:35:17.296Z,40.15
2023-05-22T16:37:45.382Z,40.20
2023-05-22T16:40:13.539Z,40.54
2023-05-22T16:42:41.557Z,40.66
2023-05-22T16:45:09.916Z,40.43
2023-05-22T16:47:37.902Z,40.28
2023-05-22T16:50:06.361Z,40.52
2023-05-22T16:52:34.461Z,40.54
2023-05-22T16:55:02.610Z,40.39
2023-05-22T16:57:30.591Z,40.33
2023-05-22T16:59:58.560Z,40.16
2023-05-22T17:02:26.946Z,40.27
2023-05-22T17:04:55.844Z,40.27
2023-05-22T17:07:23.921Z,40.39
2023-05-22T17:09:51.884Z,40.58
2023-05-22T17:12:19.863Z,40.49
2023-05-22T17:14:47.951Z,40.41
2023-05-22T17:17:15.985Z,40.52
2023-05-22T17:19:43.930Z,40.79
2023-05-22T17:22:11.946Z,40.69
2023-05-22T17:24:39.914Z,40.41
2023-05-22T17:27:08.066Z,40.31
2023-05-22T17:29:36.033Z,40.20
2023-05-22T17:32:07.530Z,40.29
2023-05-22T17:34:35.728Z,40.22
2023-05-22T17:37:03.739Z,40.71
2023-05-22T17:39:31.956Z,41.44
2023-05-22T17:42:00.585Z,41.98
2023-05-22T17:44:28.720Z,42.47
2023-05-22T17:46:56.605Z,43.88
2023-05-22T17:49:24.622Z,43.46
2023-05-22T17:51:52.659Z,42.07
2023-05-22T17:54:20.587Z,41.72
2023-05-22T17:56:48.563Z,41.95
2023-05-22T17:59:16.701Z,42.23
2023-05-22T18:01:45.377Z,42.35
2023-05-22T18:04:13.813Z,42.54
2023-05-22T18:06:41.870Z,42.57
2023-05-22T18:09:09.806Z,42.52
2023-05-22T18:11:37.824Z,42.59
2023-05-22T18:14:06.004Z,42.78
2023-05-22T18:16:34.041Z,42.81
2023-05-22T18:19:02.465Z,42.83
2023-05-22T18:21:30.441Z,43.04
2023-05-22T18:23:58.444Z,43.41
2023-05-22T18:26:26.389Z,43.60
2023-05-22T18:28:54.373Z,44.08
2023-05-22T18:31:23.477Z,44.15
2023-05-22T18:33:51.600Z,44.10
2023-05-22T18:36:19.550Z,44.36
2023-05-22T18:38:47.658Z,44.67
2023-05-22T18:41:15.690Z,45.00
2023-05-22T18:43:44.631Z,45.26
2023-05-22T18:46:12.979Z,45.38
2023-05-22T18:48:40.942Z,45.60
2023-05-22T18:51:08.943Z,45.92
2023-05-22T18:53:36.935Z,46.02
2023-05-22T18:56:04.843Z,46.23
2023-05-22T18:58:32.992Z,46.47
2023-05-22T19:01:01.168Z,46.67
2023-05-22T19:03:29.423Z,47.19
2023-05-22T19:05:57.419Z,47.86
2023-05-22T19:08:27.868Z,47.72
2023-05-22T19:10:59.063Z,47.96
2023-05-22T19:13:27.435Z,48.24
2023-05-22T19:15:55.345Z,48.77
2023-05-22T19:18:23.281Z,49.30
2023-05-22T19:20:51.266Z,49.62
2023-05-22T19:23:19.857Z,49.83
2023-05-22T19:25:48.084Z,50.14
2023-05-22T19:28:16.139Z,50.58
2023-05-22T19:30:44.333Z,50.61
2023-05-22T19:33:13.262Z,50.80
2023-05-22T19:35:41.775Z,51.40
2023-05-22T19:38:09.832Z,51.81
2023-05-22T19:40:37.909Z,51.82
2023-05-22T19:43:06.148Z,51.80
2023-05-22T19:45:34.088Z,52.16
2023-05-22T19:48:02.200Z,52.95
2023-05-22T19:50:30.256Z,53.24
2023-05-22T19:52:58.132Z,53.58
2023-05-22T19:55:26.226Z,53.81
2023-05-22T19:57:54.575Z,54.13
2023-05-22T20:00:22.570Z,54.59
2023-05-22T20:02:50.610Z,54.59
2023-05-22T20:05:18.632Z,54.88
2023-05-22T20:07:48.381Z,54.93
2023-05-22T20:10:16.388Z,55.35
2023-05-22T20:12:44.658Z,55.83
2023-05-22T20:15:16.045Z,56.28
2023-05-22T20:17:48.688Z,56.58
2023-05-22T20:20:16.649Z,57.03
2023-05-22T20:22:44.722Z,57.44
2023-05-22T20:25:12.889Z,58.02
2023-05-22T20:27:40.952Z,58.29
2023-05-22T20:30:12.596Z,58.50
2023-05-22T20:32:40.745Z,58.45
2023-05-22T20:35:09.144Z,58.63
2023-05-22T20:37:37.335Z,58.96
2023-05-22T20:40:06.536Z,59.26
2023-05-22T20:42:34.538Z,59.73
2023-05-22T20:45:02.588Z,60.25
2023-05-22T20:47:30.624Z,60.37
2023-05-22T20:49:58.596Z,60.66
2023-05-22T20:52:27.048Z,60.74
2023-05-22T20:54:55.049Z,60.89
2023-05-22T20:57:22.929Z,61.15
2023-05-22T20:59:50.990Z,61.51
2023-05-22T21:02:19.173Z,61.74
2023-05-22T21:04:47.157Z,61.82
2023-05-22T21:07:15.269Z,61.86
2023-05-22T21:09:43.234Z,61.93
2023-05-22T21:12:11.259Z,62.42
2023-05-22T21:14:39.164Z,62.48
2023-05-22T21:17:07.753Z,62.44
2023-05-22T21:19:35.727Z,62.40
2023-05-22T21:22:03.770Z,62.70
2023-05-22T21:24:33.647Z,62.76
2023-05-22T21:27:02.036Z,62.83
2023-05-22T21:29:29.948Z,62.86
2023-05-22T21:31:57.956Z,63.00
2023-05-22T21:34:25.881Z,63.17
2023-05-22T21:36:53.943Z,63.32
2023-05-22T21:39:21.899Z,63.96
2023-05-22T21:41:50.534Z,63.98
2023-05-22T21:44:19.827Z,64.55
2023-05-22T21:46:47.773Z,64.71
2023-05-22T21:49:16.261Z,64.88
2023-05-22T21:51:44.259Z,65.55
2023-05-22T21:54:12.267Z,65.50
2023-05-22T21:56:40.275Z,65.68
2023-05-22T21:59:08.237Z,66.07
2023-05-22T22:01:36.244Z,66.34
2023-05-22T22:04:04.917Z,67.21
2023-05-22T22:06:33.575Z,67.84
2023-05-22T22:09:01.626Z,68.26
2023-05-22T22:11:29.532Z,68.99
2023-05-22T22:13:57.648Z,69.00
2023-05-22T22:16:25.744Z,69.51
2023-05-22T22:18:53.770Z,69.90
2023-05-22T22:21:21.874Z,70.98
2023-05-22T22:23:49.788Z,70.50
2023-05-22T22:26:17.749Z,70.89
2023-05-22T22:28:45.725Z,71.01
2023-05-22T22:31:13.703Z,71.24
2023-05-22T22:33:41.963Z,71.49
2023-05-22T22:36:10.138Z,71.82
2023-05-22T22:38:39.743Z,72.17
2023-05-22T22:41:09.948Z,72.53
2023-05-22T22:43:38.075Z,72.75
2023-05-22T22:46:06.065Z,73.03
2023-05-22T22:48:35.102Z,73.25
2023-05-22T22:51:03.676Z,73.44
2023-05-22T22:53:31.728Z,73.66
2023-05-22T22:56:00.523Z,73.95
2023-05-22T22:58:28.803Z,74.11
2023-05-22T23:00:56.926Z,74.32
2023-05-22T23:03:24.791Z,74.41
2023-05-22T23:05:52.908Z,74.78
2023-05-22T23:08:20.840Z,74.78
2023-05-22T23:10:48.767Z,74.83
2023-05-22T23:13:17.424Z,74.92
2023-05-22T23:15:45.453Z,75.12
2023-05-22T23:18:15.168Z,75.24
2023-05-22T23:20:43.162Z,75.43
2023-05-22T23:23:11.075Z,75.80
2023-05-22T23:25:39.224Z,76.84
2023-05-22T23:28:08.163Z,76.37
2023-05-22T23:30:36.093Z,76.45
2023-05-22T23:33:04.109Z,76.52
2023-05-22T23:35:32.474Z,76.42
2023-05-22T23:38:00.396Z,76.42
2023-05-22T23:40:28.735Z,76.36
2023-05-22T23:42:56.757Z,76.38
2023-05-22T23:45:24.694Z,77.52
2023-05-22T23:47:52.672Z,76.77
2023-05-22T23:50:20.676Z,76.50
2023-05-22T23:52:49.561Z,76.49
2023-05-22T23:55:17.620Z,76.78
2023-05-22T23:57:45.548Z,77.27
